createdAt,value
2023-12-15T00:00:52.446Z,0.51
2023-12-15T00:01:52.429Z,0.51
2023-12-15T00:02:52.421Z,0.52
2023-12-15T00:03:52.487Z,0.52
2023-12-15T00:04:52.474Z,0.51
2023-12-15T00:05:52.449Z,0.52
2023-12-15T00:06:52.468Z,0.51
2023-12-15T00:07:52.482Z,0.52
2023-12-15T00:08:52.427Z,0.52
2023-12-15T00:09:52.455Z,0.52
2023-12-15T00:10:52.475Z,0.51
2023-12-15T00:11:52.420Z,0.52
2023-12-15T00:12:52.448Z,0.51
2023-12-15T00:13:52.472Z,0.50
2023-12-15T00:14:52.437Z,0.52
2023-12-15T00:15:52.515Z,0.52
2023-12-15T00:16:52.551Z,0.51
2023-12-15T00:17:52.773Z,0.52
2023-12-15T00:18:52.647Z,0.53
2023-12-15T00:19:52.647Z,0.51
2023-12-15T00:20:52.640Z,0.51
2023-12-15T00:21:52.633Z,0.51
2023-12-15T00:22:52.671Z,0.53
2023-12-15T00:23:52.660Z,0.52
2023-12-15T00:24:52.687Z,0.52
2023-12-15T00:25:52.669Z,0.52
2023-12-15T00:26:52.673Z,0.51
2023-12-15T00:27:52.646Z,0.52
2023-12-15T00:28:52.730Z,0.52
2023-12-15T00:29:52.677Z,0.53
2023-12-15T00:30:52.821Z,0.52
2023-12-15T00:31:52.827Z,0.53
2023-12-15T00:32:52.961Z,0.53
2023-12-15T00:33:52.954Z,0.52
2023-12-15T00:34:52.896Z,0.52
2023-12-15T00:35:52.872Z,0.52
2023-12-15T00:36:52.900Z,0.52
2023-12-15T00:37:52.882Z,0.52
2023-12-15T00:38:52.888Z,0.51
2023-12-15T00:39:52.898Z,0.53
2023-12-15T00:40:53.057Z,0.53
2023-12-15T00:41:52.899Z,0.52
2023-12-15T00:42:52.918Z,0.53
2023-12-15T00:43:52.926Z,0.53
2023-12-15T00:44:52.934Z,0.53
2023-12-15T00:45:52.916Z,0.52
2023-12-15T00:46:52.966Z,0.54
2023-12-15T00:47:52.967Z,0.52
2023-12-15T00:48:53.022Z,0.52
2023-12-15T00:49:52.950Z,0.53
2023-12-15T00:50:52.957Z,0.51
2023-12-15T00:51:52.952Z,0.52
2023-12-15T00:52:52.975Z,0.51
2023-12-15T00:53:52.952Z,0.53
2023-12-15T00:54:52.985Z,0.52
2023-12-15T00:55:53.029Z,0.52
2023-12-15T00:56:52.982Z,0.52
2023-12-15T00:57:52.984Z,0.52
2023-12-15T00:58:52.972Z,0.52
2023-12-15T00:59:52.994Z,0.52
2023-12-15T01:00:53.023Z,0.52
2023-12-15T01:01:53.033Z,0.53
2023-12-15T01:02:53.028Z,0.51
2023-12-15T01:03:53.031Z,0.52
2023-12-15T01:04:53.149Z,0.52
2023-12-15T01:05:53.089Z,0.52
2023-12-15T01:06:52.991Z,0.51
2023-12-15T01:07:53.049Z,0.52
2023-12-15T01:08:53.018Z,0.51
2023-12-15T01:09:52.994Z,0.52
2023-12-15T01:10:53.134Z,0.52
2023-12-15T01:11:53.086Z,0.51
2023-12-15T01:12:53.155Z,0.53
2023-12-15T01:13:53.216Z,0.51
2023-12-15T01:14:53.226Z,0.52
2023-12-15T01:15:53.266Z,0.52
2023-12-15T01:16:53.408Z,0.53
2023-12-15T01:17:55.786Z,0.51
2023-12-15T01:18:53.447Z,0.51
2023-12-15T01:19:53.349Z,0.52
2023-12-15T01:20:53.346Z,0.52
2023-12-15T01:21:53.362Z,0.52
2023-12-15T01:22:53.406Z,0.52
2023-12-15T01:23:53.339Z,0.52
2023-12-15T01:24:53.363Z,0.51
2023-12-15T01:25:53.395Z,0.52
2023-12-15T01:26:53.377Z,0.53
2023-12-15T01:27:53.347Z,0.51
2023-12-15T01:28:53.378Z,0.51
2023-12-15T01:29:53.370Z,0.52
2023-12-15T01:30:53.401Z,0.52
2023-12-15T01:31:53.394Z,0.53
2023-12-15T01:32:53.380Z,0.53
2023-12-15T01:33:53.403Z,0.52
2023-12-15T01:34:53.385Z,0.53
2023-12-15T01:35:53.357Z,0.52
2023-12-15T01:36:53.358Z,0.51
2023-12-15T01:37:53.421Z,0.51
2023-12-15T01:38:53.366Z,0.52
2023-12-15T01:39:53.384Z,0.51
2023-12-15T01:40:53.423Z,0.52
2023-12-15T01:41:53.388Z,0.50
2023-12-15T01:42:53.364Z,0.52
2023-12-15T01:43:53.435Z,0.51
2023-12-15T01:44:53.364Z,0.52
2023-12-15T01:46:01.582Z,0.51
2023-12-15T01:46:54.405Z,0.51
2023-12-15T01:47:53.556Z,0.51
2023-12-15T01:48:53.440Z,0.52
2023-12-15T01:49:53.438Z,0.52
2023-12-15T01:50:53.397Z,0.52
2023-12-15T01:51:53.392Z,0.51
2023-12-15T01:52:53.421Z,0.52
2023-12-15T01:53:53.404Z,0.51
2023-12-15T01:54:53.413Z,0.52
2023-12-15T01:55:53.472Z,0.53
2023-12-15T01:56:53.407Z,0.51
2023-12-15T01:57:53.404Z,0.51
2023-12-15T01:58:53.412Z,0.53
2023-12-15T01:59:53.405Z,0.52
2023-12-15T02:00:53.408Z,0.51
2023-12-15T02:01:53.445Z,0.51
2023-12-15T02:02:53.439Z,0.52
2023-12-15T02:03:53.432Z,0.52
2023-12-15T02:04:53.453Z,0.53
2023-12-15T02:05:53.500Z,0.53
2023-12-15T02:06:53.462Z,0.53
2023-12-15T02:07:53.475Z,0.53
2023-12-15T02:08:53.398Z,0.52
2023-12-15T02:09:53.421Z,0.52
2023-12-15T02:10:53.452Z,0.51
2023-12-15T02:11:53.389Z,0.51
2023-12-15T02:12:53.433Z,0.52
2023-12-15T02:13:53.504Z,0.52
2023-12-15T02:14:53.418Z,0.53
2023-12-15T02:15:53.420Z,0.51
2023-12-15T02:16:53.451Z,0.51
2023-12-15T02:17:53.511Z,0.52
2023-12-15T02:18:53.546Z,0.52
2023-12-15T02:19:53.564Z,0.52
2023-12-15T02:20:53.465Z,0.53
2023-12-15T02:21:53.455Z,0.52
2023-12-15T02:22:53.465Z,0.52
2023-12-15T02:23:53.420Z,0.54
2023-12-15T02:24:53.399Z,0.52
2023-12-15T02:25:53.460Z,0.52
2023-12-15T02:26:53.421Z,0.52
2023-12-15T02:27:53.450Z,0.52
2023-12-15T02:28:53.438Z,0.52
2023-12-15T02:29:53.419Z,0.52
2023-12-15T02:30:53.455Z,0.52
2023-12-15T02:31:53.525Z,0.53
2023-12-15T02:32:53.562Z,0.52
2023-12-15T02:33:53.525Z,0.51
2023-12-15T02:34:53.435Z,0.51
2023-12-15T02:35:53.453Z,0.53
2023-12-15T02:36:53.482Z,0.52
2023-12-15T02:37:53.500Z,0.53
2023-12-15T02:38:53.427Z,0.51
2023-12-15T02:39:53.428Z,0.52
2023-12-15T02:40:53.519Z,0.51
2023-12-15T02:41:53.457Z,0.51
2023-12-15T02:42:53.428Z,0.52
2023-12-15T02:43:53.583Z,0.52
2023-12-15T02:44:53.436Z,0.51
2023-12-15T02:45:53.463Z,0.51
2023-12-15T02:46:53.541Z,0.51
2023-12-15T02:47:53.592Z,0.52
2023-12-15T02:48:53.520Z,0.52
2023-12-15T02:49:53.535Z,0.52
2023-12-15T02:50:53.494Z,0.50
2023-12-15T02:51:53.556Z,0.52
2023-12-15T02:52:53.641Z,0.52
2023-12-15T02:53:53.623Z,0.52
2023-12-15T02:54:53.655Z,0.52
2023-12-15T02:55:53.736Z,0.52
2023-12-15T02:56:53.749Z,0.52
2023-12-15T02:57:53.831Z,0.52
2023-12-15T02:58:53.905Z,0.52
2023-12-15T02:59:53.894Z,0.52
2023-12-15T03:00:54.003Z,0.53
2023-12-15T03:01:54.106Z,0.52
2023-12-15T03:02:54.043Z,0.53
2023-12-15T03:03:54.053Z,0.52
2023-12-15T03:04:54.096Z,0.53
2023-12-15T03:05:54.146Z,0.52
2023-12-15T03:06:54.153Z,0.53
2023-12-15T03:07:54.232Z,0.53
2023-12-15T03:08:54.208Z,0.53
2023-12-15T03:09:54.247Z,0.53
2023-12-15T03:10:54.293Z,0.53
2023-12-15T03:11:54.305Z,0.51
2023-12-15T03:12:54.356Z,0.53
2023-12-15T03:13:54.485Z,0.53
2023-12-15T03:14:54.433Z,0.52
2023-12-15T03:15:54.495Z,0.53
2023-12-15T03:16:54.543Z,0.53
2023-12-15T03:17:54.649Z,0.52
2023-12-15T03:18:54.622Z,0.52
2023-12-15T03:19:54.673Z,0.53
2023-12-15T03:20:54.679Z,0.53
2023-12-15T03:21:54.716Z,0.52
2023-12-15T03:22:54.754Z,0.53
2023-12-15T03:23:54.818Z,0.52
2023-12-15T03:24:54.816Z,0.53
2023-12-15T03:25:54.884Z,0.53
2023-12-15T03:26:54.884Z,0.53
2023-12-15T03:27:54.947Z,0.54
2023-12-15T03:28:55.023Z,0.53
2023-12-15T03:29:55.072Z,0.53
2023-12-15T03:30:55.183Z,0.55
2023-12-15T03:31:55.790Z,0.53
2023-12-15T03:32:55.353Z,0.53
2023-12-15T03:33:55.377Z,0.52
2023-12-15T03:34:55.393Z,0.52
2023-12-15T03:35:55.422Z,0.53
2023-12-15T03:36:55.512Z,0.53
2023-12-15T03:37:55.578Z,0.55
2023-12-15T03:38:55.622Z,0.53
2023-12-15T03:39:55.670Z,0.53
2023-12-15T03:40:55.788Z,0.54
2023-12-15T03:41:55.856Z,0.53
2023-12-15T03:42:55.899Z,0.54
2023-12-15T03:43:56.188Z,0.52
2023-12-15T03:44:56.089Z,0.52
2023-12-15T03:45:56.120Z,0.54
2023-12-15T03:46:56.246Z,0.54
2023-12-15T03:47:56.354Z,0.52
2023-12-15T03:48:56.415Z,0.53
2023-12-15T03:49:56.488Z,0.54
2023-12-15T03:50:56.463Z,0.54
2023-12-15T03:51:56.533Z,0.54
2023-12-15T03:52:56.646Z,0.52
2023-12-15T03:53:56.696Z,0.54
2023-12-15T03:54:57.578Z,0.53
2023-12-15T03:55:56.851Z,0.54
2023-12-15T03:56:57.692Z,0.54
2023-12-15T03:57:56.993Z,0.53
2023-12-15T03:58:57.072Z,0.54
2023-12-15T03:59:57.102Z,0.54
2023-12-15T04:00:57.230Z,0.53
2023-12-15T04:01:57.232Z,0.54
2023-12-15T04:02:57.400Z,0.52
2023-12-15T04:03:57.360Z,0.53
2023-12-15T04:04:57.501Z,0.53
2023-12-15T04:05:57.640Z,0.54
2023-12-15T04:06:57.579Z,0.54
2023-12-15T04:07:57.716Z,0.55
2023-12-15T04:08:57.727Z,0.53
2023-12-15T04:09:57.794Z,0.54
2023-12-15T04:10:57.922Z,0.54
2023-12-15T04:11:58.010Z,0.53
2023-12-15T04:12:58.003Z,0.53
2023-12-15T04:13:58.096Z,0.54
2023-12-15T04:14:58.139Z,0.54
2023-12-15T04:16:00.509Z,0.54
2023-12-15T04:16:58.385Z,0.54
2023-12-15T04:17:58.439Z,0.54
2023-12-15T04:18:58.539Z,0.54
2023-12-15T04:19:58.667Z,0.53
2023-12-15T04:20:58.507Z,0.54
2023-12-15T04:21:58.589Z,0.53
2023-12-15T04:22:58.653Z,0.54
2023-12-15T04:24:05.799Z,0.50
2023-12-15T04:25:05.857Z,0.50
2023-12-15T04:26:05.858Z,0.50
2023-12-15T04:27:05.857Z,0.50
2023-12-15T04:28:05.789Z,0.50
2023-12-15T04:29:05.841Z,0.51
2023-12-15T04:30:05.915Z,0.51
2023-12-15T04:31:13.082Z,0.50
2023-12-15T04:32:13.130Z,0.50
2023-12-15T04:33:13.125Z,0.50
2023-12-15T04:34:13.074Z,0.50
2023-12-15T04:35:13.124Z,0.50
2023-12-15T04:36:13.230Z,0.51
2023-12-15T04:37:13.065Z,0.51
2023-12-15T04:38:13.165Z,0.51
2023-12-15T04:39:13.094Z,0.50
2023-12-15T04:40:13.076Z,0.51
2023-12-15T04:41:13.114Z,0.51
2023-12-15T04:42:13.110Z,0.52
2023-12-15T04:43:13.120Z,0.51
2023-12-15T04:44:13.175Z,0.51
2023-12-15T04:45:13.104Z,0.51
2023-12-15T04:46:13.080Z,0.52
2023-12-15T04:47:13.117Z,0.50
2023-12-15T04:48:13.166Z,0.50
2023-12-15T04:49:13.107Z,0.52
2023-12-15T04:50:13.129Z,0.52
2023-12-15T04:51:13.111Z,0.50
2023-12-15T04:52:13.143Z,0.51
2023-12-15T04:53:13.258Z,0.51
2023-12-15T04:54:13.280Z,0.51
2023-12-15T04:55:13.343Z,0.50
2023-12-15T04:56:13.449Z,0.51
2023-12-15T04:57:13.588Z,0.51
2023-12-15T04:58:13.519Z,0.51
2023-12-15T04:59:13.855Z,0.52
2023-12-15T05:00:13.696Z,0.51
2023-12-15T05:01:13.758Z,0.52
2023-12-15T05:02:13.787Z,0.52
2023-12-15T05:03:13.897Z,0.51
2023-12-15T05:04:13.834Z,0.52
2023-12-15T05:05:13.910Z,0.51
2023-12-15T05:06:13.887Z,0.50
2023-12-15T05:07:13.890Z,0.52
2023-12-15T05:08:13.945Z,0.52
2023-12-15T05:09:13.993Z,0.51
2023-12-15T05:10:14.199Z,0.52
2023-12-15T05:11:14.173Z,0.51
2023-12-15T05:12:14.181Z,0.51
2023-12-15T05:13:14.262Z,0.50
2023-12-15T05:14:14.364Z,0.52
2023-12-15T05:15:14.412Z,0.51
2023-12-15T05:16:14.428Z,0.52
2023-12-15T05:17:14.541Z,0.53
2023-12-15T05:18:14.754Z,0.51
2023-12-15T05:19:14.750Z,0.51
2023-12-15T05:20:14.644Z,0.51
2023-12-15T05:21:14.619Z,0.51
2023-12-15T05:22:14.621Z,0.51
2023-12-15T05:23:14.706Z,0.51
2023-12-15T05:24:14.678Z,0.51
2023-12-15T05:25:14.735Z,0.51
2023-12-15T05:26:14.747Z,0.51
2023-12-15T05:27:14.754Z,0.51
2023-12-15T05:28:14.777Z,0.52
2023-12-15T05:29:14.841Z,0.51
2023-12-15T05:30:14.837Z,0.51
2023-12-15T05:31:14.787Z,0.52
2023-12-15T05:32:14.905Z,0.50
2023-12-15T05:33:14.924Z,0.50
2023-12-15T05:34:14.898Z,0.52
2023-12-15T05:35:14.898Z,0.52
2023-12-15T05:36:14.892Z,0.51
2023-12-15T05:37:14.877Z,0.51
2023-12-15T05:38:15.039Z,0.51
2023-12-15T05:39:14.937Z,0.52
2023-12-15T05:40:14.917Z,0.52
2023-12-15T05:41:14.966Z,0.51
2023-12-15T05:42:14.965Z,0.50
2023-12-15T05:43:15.033Z,0.52
2023-12-15T05:44:15.077Z,0.52
2023-12-15T05:45:15.039Z,0.52
2023-12-15T05:46:15.086Z,0.52
2023-12-15T05:47:15.157Z,0.52
2023-12-15T05:48:15.299Z,0.51
2023-12-15T05:49:15.257Z,0.51
2023-12-15T05:50:15.195Z,0.52
2023-12-15T05:51:15.174Z,0.53
2023-12-15T05:52:15.207Z,0.52
2023-12-15T05:53:15.235Z,0.52
2023-12-15T05:54:15.157Z,0.52
2023-12-15T05:55:15.212Z,0.52
2023-12-15T05:56:15.309Z,0.52
2023-12-15T05:57:15.302Z,0.53
2023-12-15T05:58:15.375Z,0.52
2023-12-15T05:59:15.460Z,0.51
2023-12-15T06:00:15.525Z,0.52
2023-12-15T06:01:38.049Z,0.52
2023-12-15T06:02:15.559Z,0.52
2023-12-15T06:03:15.634Z,0.52
2023-12-15T06:04:15.596Z,0.53
2023-12-15T06:05:15.645Z,0.53
2023-12-15T06:06:15.666Z,0.55
2023-12-15T06:07:15.580Z,0.55
2023-12-15T06:08:15.614Z,0.54
2023-12-15T06:09:15.545Z,0.53
2023-12-15T06:10:15.545Z,0.54
2023-12-15T06:11:15.591Z,0.53
2023-12-15T06:12:15.568Z,0.53
2023-12-15T06:13:15.563Z,0.53
2023-12-15T06:14:15.620Z,0.54
2023-12-15T06:15:15.628Z,0.55
2023-12-15T06:16:15.591Z,0.54
2023-12-15T06:17:15.671Z,0.55
2023-12-15T06:18:15.805Z,0.55
2023-12-15T06:19:15.850Z,0.55
2023-12-15T06:20:15.873Z,0.55
2023-12-15T06:21:15.892Z,0.56
2023-12-15T06:22:16.006Z,0.55
2023-12-15T06:23:16.103Z,0.55
2023-12-15T06:24:16.101Z,0.56
2023-12-15T06:25:16.159Z,0.56
2023-12-15T06:26:16.334Z,0.56
2023-12-15T06:27:16.317Z,0.57
2023-12-15T06:28:16.430Z,0.57
2023-12-15T06:29:16.427Z,0.56
2023-12-15T06:30:16.508Z,0.55
2023-12-15T06:31:16.478Z,0.57
2023-12-15T06:32:16.536Z,0.58
2023-12-15T06:33:16.830Z,0.57
2023-12-15T06:34:16.566Z,0.56
2023-12-15T06:35:16.593Z,0.57
2023-12-15T06:36:16.569Z,0.57
2023-12-15T06:37:16.768Z,0.57
2023-12-15T06:38:16.646Z,0.57
2023-12-15T06:39:17.910Z,0.59
2023-12-15T06:40:16.679Z,0.59
2023-12-15T06:41:16.739Z,0.60
2023-12-15T06:42:16.686Z,0.61
2023-12-15T06:43:16.750Z,0.61
2023-12-15T06:44:16.897Z,0.61
2023-12-15T06:45:16.894Z,0.62
2023-12-15T06:46:39.515Z,0.61
2023-12-15T06:47:18.861Z,0.61
2023-12-15T06:48:17.081Z,0.62
2023-12-15T06:49:19.643Z,0.62
2023-12-15T06:50:17.015Z,0.62
2023-12-15T06:51:17.006Z,0.63
2023-12-15T06:52:16.995Z,0.64
2023-12-15T06:53:16.981Z,0.67
2023-12-15T06:54:16.964Z,0.66
2023-12-15T06:55:16.992Z,0.64
2023-12-15T06:56:16.997Z,0.66
2023-12-15T06:57:16.985Z,0.66
2023-12-15T06:58:16.984Z,0.65
2023-12-15T06:59:17.329Z,0.64
2023-12-15T07:00:17.000Z,0.65
2023-12-15T07:01:17.011Z,0.63
2023-12-15T07:02:17.012Z,0.64
2023-12-15T07:03:17.034Z,0.64
2023-12-15T07:04:17.138Z,0.63
2023-12-15T07:05:17.140Z,0.63
2023-12-15T07:06:17.050Z,0.62
2023-12-15T07:07:17.006Z,0.64
2023-12-15T07:08:17.039Z,0.64
2023-12-15T07:09:19.517Z,0.63
2023-12-15T07:10:17.781Z,0.63
2023-12-15T07:11:17.882Z,0.63
2023-12-15T07:12:16.992Z,0.63
2023-12-15T07:13:16.991Z,0.63
2023-12-15T07:14:17.027Z,0.63
2023-12-15T07:15:17.012Z,0.63
2023-12-15T07:16:17.019Z,0.64
2023-12-15T07:17:17.041Z,0.64
2023-12-15T07:18:17.176Z,0.62
2023-12-15T07:19:18.293Z,0.64
2023-12-15T07:20:17.057Z,0.62
2023-12-15T07:21:17.010Z,0.62
2023-12-15T07:22:19.589Z,0.63
2023-12-15T07:23:17.026Z,0.63
2023-12-15T07:24:17.018Z,0.63
2023-12-15T07:25:17.026Z,0.63
2023-12-15T07:26:17.063Z,0.63
2023-12-15T07:27:17.032Z,0.62
2023-12-15T07:28:17.081Z,0.62
2023-12-15T07:29:17.860Z,0.64
2023-12-15T07:30:17.066Z,0.62
2023-12-15T07:31:17.826Z,0.63
2023-12-15T07:32:17.112Z,0.61
2023-12-15T07:33:17.083Z,0.63
2023-12-15T07:34:17.466Z,0.62
2023-12-15T07:35:25.433Z,0.62
2023-12-15T07:36:18.128Z,0.62
2023-12-15T07:37:17.052Z,0.62
2023-12-15T07:38:17.088Z,0.62
2023-12-15T07:39:17.329Z,0.62
2023-12-15T07:40:17.073Z,0.61
2023-12-15T07:41:17.175Z,0.61
2023-12-15T07:42:17.087Z,0.61
2023-12-15T07:43:17.053Z,0.61
2023-12-15T07:44:17.186Z,0.62
2023-12-15T07:45:17.186Z,0.61
2023-12-15T07:46:17.325Z,0.62
2023-12-15T07:47:17.320Z,0.63
2023-12-15T07:48:17.482Z,0.63
2023-12-15T07:49:17.474Z,0.62
2023-12-15T07:50:17.554Z,0.62
2023-12-15T07:51:17.576Z,0.63
2023-12-15T07:52:17.622Z,0.61
2023-12-15T07:53:17.725Z,0.62
2023-12-15T07:54:17.753Z,0.62
2023-12-15T07:55:17.841Z,0.63
2023-12-15T07:56:17.955Z,0.62
2023-12-15T07:57:18.830Z,0.62
2023-12-15T07:58:18.012Z,0.63
2023-12-15T07:59:19.304Z,0.60
2023-12-15T08:00:18.189Z,0.63
2023-12-15T08:01:18.307Z,0.63
2023-12-15T08:02:18.373Z,0.63
2023-12-15T08:03:18.424Z,0.64
2023-12-15T08:04:18.423Z,0.64
2023-12-15T08:05:18.580Z,0.64
2023-12-15T08:06:18.665Z,0.63
2023-12-15T08:07:18.664Z,0.63
2023-12-15T08:08:18.723Z,0.64
2023-12-15T08:09:18.770Z,0.63
2023-12-15T08:10:18.809Z,0.63
2023-12-15T08:11:19.807Z,0.64
2023-12-15T08:12:18.994Z,0.63
2023-12-15T08:13:19.057Z,0.62
2023-12-15T08:14:19.865Z,0.63
2023-12-15T08:15:19.209Z,0.61
2023-12-15T08:16:19.273Z,0.64
2023-12-15T08:17:19.390Z,0.63
2023-12-15T08:18:19.420Z,0.64
2023-12-15T08:19:19.477Z,0.62
2023-12-15T08:20:19.566Z,0.62
2023-12-15T08:21:19.562Z,0.64
2023-12-15T08:22:19.672Z,0.64
2023-12-15T08:23:19.666Z,0.63
2023-12-15T08:24:19.838Z,0.64
2023-12-15T08:25:19.689Z,0.64
2023-12-15T08:26:19.875Z,0.65
2023-12-15T08:27:19.810Z,0.63
2023-12-15T08:28:19.894Z,0.64
2023-12-15T08:29:20.056Z,0.63
2023-12-15T08:30:20.005Z,0.64
2023-12-15T08:31:20.095Z,0.64
2023-12-15T08:32:20.214Z,0.64
2023-12-15T08:33:20.253Z,0.65
2023-12-15T08:34:20.451Z,0.64
2023-12-15T08:35:20.292Z,0.65
2023-12-15T08:36:20.289Z,0.64
2023-12-15T08:37:20.339Z,0.64
2023-12-15T08:38:20.406Z,0.65
2023-12-15T08:39:20.498Z,0.63
2023-12-15T08:40:20.575Z,0.65
2023-12-15T08:41:20.607Z,0.66
2023-12-15T08:42:20.681Z,0.66
2023-12-15T08:43:20.737Z,0.65
2023-12-15T08:44:29.075Z,0.65
2023-12-15T08:45:21.901Z,0.66
2023-12-15T08:46:20.817Z,0.66
2023-12-15T08:47:20.845Z,0.66
2023-12-15T08:48:20.890Z,0.67
2023-12-15T08:49:20.936Z,0.67
2023-12-15T08:50:20.897Z,0.67
2023-12-15T08:51:20.845Z,0.67
2023-12-15T08:52:20.901Z,0.68
2023-12-15T08:53:21.058Z,0.66
2023-12-15T08:54:21.024Z,0.66
2023-12-15T08:55:21.100Z,0.67
2023-12-15T08:56:21.340Z,0.65
2023-12-15T08:57:21.321Z,0.67
2023-12-15T08:58:21.265Z,0.67
2023-12-15T08:59:21.360Z,0.66
2023-12-15T09:00:21.401Z,0.67
2023-12-15T09:01:21.563Z,0.65
2023-12-15T09:02:21.553Z,0.65
2023-12-15T09:03:21.606Z,0.66
2023-12-15T09:04:21.706Z,0.65
2023-12-15T09:05:31.310Z,0.65
2023-12-15T09:06:27.424Z,0.65
2023-12-15T09:07:22.811Z,0.65
2023-12-15T09:08:21.958Z,0.65
2023-12-15T09:09:21.801Z,0.65
2023-12-15T09:10:21.732Z,0.66
2023-12-15T09:11:21.788Z,0.65
2023-12-15T09:12:21.774Z,0.65
2023-12-15T09:13:21.771Z,0.66
2023-12-15T09:14:21.795Z,0.64
2023-12-15T09:15:21.773Z,0.64
2023-12-15T09:16:21.815Z,0.63
2023-12-15T09:17:21.748Z,0.64
2023-12-15T09:18:21.858Z,0.64
2023-12-15T09:19:21.795Z,0.63
2023-12-15T09:20:21.800Z,0.63
2023-12-15T09:21:21.774Z,0.64
2023-12-15T09:22:21.784Z,0.62
2023-12-15T09:23:21.812Z,0.61
2023-12-15T09:24:21.815Z,0.63
2023-12-15T09:25:21.799Z,0.61
2023-12-15T09:26:21.814Z,0.61
2023-12-15T09:27:21.813Z,0.63
2023-12-15T09:28:21.827Z,0.62
2023-12-15T09:29:21.929Z,0.61
2023-12-15T09:30:21.885Z,0.62
2023-12-15T09:31:21.953Z,0.61
2023-12-15T09:32:21.933Z,0.60
2023-12-15T09:33:22.017Z,0.62
2023-12-15T09:34:21.959Z,0.62
2023-12-15T09:35:21.974Z,0.60
2023-12-15T09:36:22.014Z,0.61
2023-12-15T09:37:22.080Z,0.62
2023-12-15T09:38:22.196Z,0.62
2023-12-15T09:39:22.408Z,0.64
2023-12-15T09:40:22.275Z,0.63
2023-12-15T09:41:22.330Z,0.63
2023-12-15T09:42:22.372Z,0.64
2023-12-15T09:43:22.489Z,0.64
2023-12-15T09:44:22.583Z,0.64
2023-12-15T09:45:22.912Z,0.65
2023-12-15T09:46:22.668Z,0.65
2023-12-15T09:47:22.780Z,0.64
2023-12-15T09:48:22.855Z,0.66
2023-12-15T09:49:22.939Z,0.64
2023-12-15T09:50:25.954Z,0.66
2023-12-15T09:51:22.892Z,0.66
2023-12-15T09:52:22.926Z,0.66
2023-12-15T09:53:22.975Z,0.67
2023-12-15T09:54:22.926Z,0.66
2023-12-15T09:55:22.935Z,0.66
2023-12-15T09:56:22.951Z,0.66
2023-12-15T09:57:22.881Z,0.66
2023-12-15T09:58:22.881Z,0.66
2023-12-15T09:59:22.961Z,0.65
2023-12-15T10:00:22.904Z,0.66
2023-12-15T10:01:22.979Z,0.66
2023-12-15T10:02:22.920Z,0.65
2023-12-15T10:03:22.963Z,0.65
2023-12-15T10:04:22.944Z,0.64
2023-12-15T10:05:23.025Z,0.64
2023-12-15T10:06:23.067Z,0.64
2023-12-15T10:07:22.884Z,0.64
2023-12-15T10:08:22.947Z,0.62
2023-12-15T10:09:24.430Z,0.63
2023-12-15T10:10:22.939Z,0.64
2023-12-15T10:11:22.923Z,0.63
2023-12-15T10:12:22.958Z,0.64
2023-12-15T10:13:22.974Z,0.64
2023-12-15T10:14:22.924Z,0.63
2023-12-15T10:15:24.260Z,0.63
2023-12-15T10:16:23.022Z,0.63
2023-12-15T10:17:23.197Z,0.63
2023-12-15T10:18:31.894Z,0.62
2023-12-15T10:19:24.248Z,0.63
2023-12-15T10:20:23.131Z,0.63
2023-12-15T10:21:23.735Z,0.63
2023-12-15T10:22:23.223Z,0.63
2023-12-15T10:23:23.155Z,0.64
2023-12-15T10:24:23.102Z,0.64
2023-12-15T10:25:23.155Z,0.62
2023-12-15T10:26:23.164Z,0.63
2023-12-15T10:27:23.189Z,0.62
2023-12-15T10:28:23.262Z,0.63
2023-12-15T10:29:23.349Z,0.63
2023-12-15T10:30:23.952Z,0.63
2023-12-15T10:31:23.477Z,0.62
2023-12-15T10:32:23.554Z,0.62
2023-12-15T10:33:23.676Z,0.62
2023-12-15T10:34:23.748Z,0.61
2023-12-15T10:35:24.499Z,0.63
2023-12-15T10:36:23.759Z,0.62
2023-12-15T10:37:26.389Z,0.62
2023-12-15T10:38:24.073Z,0.62
2023-12-15T10:39:24.158Z,0.62
2023-12-15T10:40:24.412Z,0.62
2023-12-15T10:41:24.289Z,0.63
2023-12-15T10:42:24.316Z,0.63
2023-12-15T10:43:24.389Z,0.61
2023-12-15T10:44:24.461Z,0.62
2023-12-15T10:45:24.891Z,0.63
2023-12-15T10:46:24.646Z,0.61
2023-12-15T10:47:24.635Z,0.63
2023-12-15T10:48:24.918Z,0.63
2023-12-15T10:49:24.803Z,0.62
2023-12-15T10:50:24.836Z,0.62
2023-12-15T10:51:24.928Z,0.63
2023-12-15T10:52:24.941Z,0.63
2023-12-15T10:53:25.103Z,0.63
2023-12-15T10:54:25.082Z,0.63
2023-12-15T10:55:25.182Z,0.63
2023-12-15T10:56:26.234Z,0.63
2023-12-15T10:57:25.171Z,0.64
2023-12-15T10:58:25.140Z,0.63
2023-12-15T10:59:25.162Z,0.62
2023-12-15T11:00:25.150Z,0.62
2023-12-15T11:01:25.171Z,0.63
2023-12-15T11:02:25.161Z,0.62
2023-12-15T11:03:25.975Z,0.62
2023-12-15T11:04:25.251Z,0.62
2023-12-15T11:05:32.847Z,0.62
2023-12-15T11:06:26.307Z,0.62
2023-12-15T11:07:25.352Z,0.62
2023-12-15T11:08:25.366Z,0.63
2023-12-15T11:09:25.446Z,0.63
2023-12-15T11:10:25.243Z,0.62
2023-12-15T11:11:25.324Z,0.63
2023-12-15T11:12:25.311Z,0.62
2023-12-15T11:13:25.250Z,0.62
2023-12-15T11:14:25.287Z,0.64
2023-12-15T11:15:25.296Z,0.62
2023-12-15T11:16:25.405Z,0.62
2023-12-15T11:17:25.495Z,0.62
2023-12-15T11:18:25.643Z,0.62
2023-12-15T11:19:25.603Z,0.62
2023-12-15T11:20:25.714Z,0.61
2023-12-15T11:21:25.705Z,0.63
2023-12-15T11:22:25.771Z,0.62
2023-12-15T11:23:25.842Z,0.62
2023-12-15T11:24:25.889Z,0.63
2023-12-15T11:25:25.913Z,0.62
2023-12-15T11:26:25.947Z,0.61
2023-12-15T11:27:25.891Z,0.62
2023-12-15T11:28:25.911Z,0.63
2023-12-15T11:29:25.959Z,0.63
2023-12-15T11:30:25.973Z,0.62
2023-12-15T11:31:25.957Z,0.61
2023-12-15T11:32:25.991Z,0.62
2023-12-15T11:33:26.133Z,0.61
2023-12-15T11:34:26.045Z,0.62
2023-12-15T11:35:26.436Z,0.61
2023-12-15T11:36:26.041Z,0.61
2023-12-15T11:37:26.028Z,0.62
2023-12-15T11:38:26.071Z,0.62
2023-12-15T11:39:26.115Z,0.62
2023-12-15T11:40:26.075Z,0.62
2023-12-15T11:41:26.106Z,0.62
2023-12-15T11:42:26.166Z,0.62
2023-12-15T11:43:26.190Z,0.62
2023-12-15T11:44:26.159Z,0.60
2023-12-15T11:45:26.188Z,0.62
2023-12-15T11:46:26.221Z,0.61
2023-12-15T11:47:26.227Z,0.62
2023-12-15T11:48:26.299Z,0.62
2023-12-15T11:49:26.250Z,0.62
2023-12-15T11:50:26.275Z,0.62
2023-12-15T11:51:26.373Z,0.62
2023-12-15T11:52:26.299Z,0.63
2023-12-15T11:53:26.373Z,0.62
2023-12-15T11:54:26.364Z,0.63
2023-12-15T11:55:26.372Z,0.63
2023-12-15T11:56:26.370Z,0.63
2023-12-15T11:57:26.406Z,0.63
2023-12-15T11:58:26.418Z,0.63
2023-12-15T11:59:26.491Z,0.63
2023-12-15T12:00:26.502Z,0.63
2023-12-15T12:01:26.517Z,0.63
2023-12-15T12:02:26.625Z,0.64
2023-12-15T12:03:26.551Z,0.63
2023-12-15T12:04:26.567Z,0.63
2023-12-15T12:05:26.552Z,0.62
2023-12-15T12:06:26.658Z,0.62
2023-12-15T12:07:26.591Z,0.63
2023-12-15T12:08:26.644Z,0.63
2023-12-15T12:09:26.670Z,0.63
2023-12-15T12:10:26.696Z,0.63
2023-12-15T12:11:26.906Z,0.64
2023-12-15T12:12:26.811Z,0.63
2023-12-15T12:13:26.891Z,0.63
2023-12-15T12:14:26.964Z,0.64
2023-12-15T12:15:27.962Z,0.63
2023-12-15T12:16:27.120Z,0.63
2023-12-15T12:17:27.309Z,0.63
2023-12-15T12:18:27.325Z,0.62
2023-12-15T12:19:27.307Z,0.65
2023-12-15T12:20:27.375Z,0.62
2023-12-15T12:21:27.396Z,0.63
2023-12-15T12:22:27.466Z,0.64
2023-12-15T12:23:34.764Z,0.62
2023-12-15T12:24:28.534Z,0.62
2023-12-15T12:25:27.579Z,0.63
2023-12-15T12:26:27.624Z,0.63
2023-12-15T12:27:27.546Z,0.63
2023-12-15T12:28:27.533Z,0.64
2023-12-15T12:29:27.575Z,0.63
2023-12-15T12:30:27.579Z,0.63
2023-12-15T12:31:28.150Z,0.62
2023-12-15T12:32:27.641Z,0.62
2023-12-15T12:33:27.742Z,0.62
2023-12-15T12:34:27.794Z,0.59
2023-12-15T12:35:27.805Z,0.57
2023-12-15T12:36:27.935Z,0.58
2023-12-15T12:37:27.939Z,0.58
2023-12-15T12:38:28.045Z,0.56
2023-12-15T12:39:28.006Z,0.54
2023-12-15T12:40:27.962Z,0.56
2023-12-15T12:41:28.557Z,0.54
2023-12-15T12:42:27.978Z,0.54
2023-12-15T12:43:28.011Z,0.54
2023-12-15T12:44:28.082Z,0.54
2023-12-15T12:45:28.024Z,0.54
2023-12-15T12:46:28.039Z,0.51
2023-12-15T12:47:29.333Z,0.51
2023-12-15T12:48:28.254Z,0.50
2023-12-15T12:49:36.033Z,0.50
2023-12-15T12:50:29.189Z,0.50
2023-12-15T12:51:28.072Z,0.50
2023-12-15T12:52:28.086Z,0.50
2023-12-15T12:53:28.123Z,0.50
2023-12-15T12:54:28.060Z,0.49
2023-12-15T12:55:28.045Z,0.51
2023-12-15T12:56:28.123Z,0.52
2023-12-15T12:57:28.074Z,0.51
2023-12-15T12:58:28.040Z,0.51
2023-12-15T12:59:28.103Z,0.51
2023-12-15T13:00:28.112Z,0.51
2023-12-15T13:01:28.078Z,0.50
2023-12-15T13:02:28.245Z,0.51
2023-12-15T13:03:28.151Z,0.51
2023-12-15T13:04:28.055Z,0.51
2023-12-15T13:05:28.104Z,0.51
2023-12-15T13:06:28.139Z,0.52
2023-12-15T13:07:28.335Z,0.51
2023-12-15T13:08:28.212Z,0.52
2023-12-15T13:09:28.254Z,0.52
2023-12-15T13:10:28.089Z,0.51
2023-12-15T13:11:28.170Z,0.51
2023-12-15T13:12:28.111Z,0.52
2023-12-15T13:13:28.093Z,0.53
2023-12-15T13:14:28.178Z,0.51
2023-12-15T13:15:28.956Z,0.51
2023-12-15T13:16:28.095Z,0.52
2023-12-15T13:17:28.131Z,0.53
2023-12-15T13:18:28.223Z,0.53
2023-12-15T13:19:28.141Z,0.52